createdAt,value
2022-08-20T00:00:19.182Z,64.064000
2022-08-20T00:05:22.090Z,63.577143
2022-08-20T00:10:24.426Z,63.812000
2022-08-20T00:15:26.774Z,63.860000
2022-08-20T00:20:29.205Z,63.860000
2022-08-20T00:25:31.890Z,63.992000
2022-08-20T00:30:34.300Z,63.980000
2022-08-20T00:35:16.657Z,64.832000
2022-08-20T00:40:22.252Z,65.168000
2022-08-20T00:45:21.352Z,64.928000
2022-08-20T00:50:23.944Z,65.055714
2022-08-20T00:55:30.963Z,65.168000
2022-08-20T01:00:28.612Z,65.576000
2022-08-20T01:05:31.686Z,66.080000
2022-08-20T01:10:33.951Z,66.608000
2022-08-20T01:15:16.393Z,66.644000
2022-08-20T01:20:18.999Z,66.644000
2022-08-20T01:25:21.532Z,66.632000
2022-08-20T01:30:23.750Z,66.740000
2022-08-20T01:35:26.377Z,66.740000
2022-08-20T01:40:28.824Z,67.220000
2022-08-20T01:45:31.206Z,67.820000
2022-08-20T01:50:33.929Z,67.748000
2022-08-20T01:55:16.276Z,67.784000
2022-08-20T02:00:20.248Z,68.000000
2022-08-20T02:05:21.843Z,67.724000
2022-08-20T02:10:24.163Z,67.447143
2022-08-20T02:15:30.748Z,67.280000
2022-08-20T02:20:28.978Z,67.124000
2022-08-20T02:25:31.961Z,67.376000
2022-08-20T02:30:34.192Z,67.388000
2022-08-20T02:35:16.414Z,67.964000
2022-08-20T02:40:19.150Z,68.084000
2022-08-20T02:45:21.669Z,67.678571
2022-08-20T02:50:24.638Z,67.340000
2022-08-20T02:55:28.368Z,67.232000
2022-08-20T03:00:29.167Z,67.328000
2022-08-20T03:05:31.940Z,67.388000
2022-08-20T03:10:34.505Z,68.168000
2022-08-20T03:15:17.250Z,68.252000
2022-08-20T03:20:23.759Z,68.312000
2022-08-20T03:25:22.239Z,68.180000
2022-08-20T03:30:24.495Z,68.120000
2022-08-20T03:35:27.016Z,68.396000
2022-08-20T03:40:29.457Z,69.224000
2022-08-20T03:45:32.071Z,69.248000
2022-08-20T03:50:34.706Z,68.588000
2022-08-20T03:55:16.738Z,67.616000
2022-08-20T04:00:18.914Z,67.160000
2022-08-20T04:05:21.349Z,66.992000
2022-08-20T04:10:23.641Z,66.920000
2022-08-20T04:15:26.048Z,66.848000
2022-08-20T04:20:28.710Z,66.572000
2022-08-20T04:25:31.355Z,66.584000
2022-08-20T04:30:34.889Z,66.836000
2022-08-20T04:35:17.007Z,66.788000
2022-08-20T04:40:19.562Z,66.944000
2022-08-20T04:45:21.928Z,67.112000
2022-08-20T04:50:24.194Z,67.884286
2022-08-20T04:55:26.379Z,67.688000
2022-08-20T05:00:29.052Z,67.532000
2022-08-20T05:05:31.932Z,67.388000
2022-08-20T05:10:34.772Z,67.208000
2022-08-20T05:15:17.302Z,67.100000
2022-08-20T05:20:19.908Z,67.100000
2022-08-20T05:25:22.349Z,67.100000
2022-08-20T05:30:25.490Z,67.052000
2022-08-20T05:35:28.588Z,67.280000
2022-08-20T05:40:30.997Z,67.556000
2022-08-20T05:45:33.616Z,67.352000
2022-08-20T05:50:20.731Z,66.932000
2022-08-20T05:55:19.236Z,66.692000
2022-08-20T06:00:22.215Z,67.232000
2022-08-20T06:05:25.269Z,66.572857
2022-08-20T06:10:27.406Z,65.228000
2022-08-20T06:15:30.038Z,64.664000
2022-08-20T06:20:32.676Z,63.800000
2022-08-20T06:25:37.934Z,63.224000
2022-08-20T06:30:17.617Z,62.984000
2022-08-20T06:35:20.334Z,63.296000
2022-08-20T06:40:22.992Z,62.972857
2022-08-20T06:45:25.429Z,62.540000
2022-08-20T06:50:28.114Z,62.528000
2022-08-20T06:55:30.496Z,62.528000
2022-08-20T07:00:33.076Z,63.056000
2022-08-20T07:05:35.849Z,63.644000
2022-08-20T07:10:18.505Z,64.796000
2022-08-20T07:15:20.581Z,65.216000
2022-08-20T07:20:23.331Z,65.441429
2022-08-20T07:25:26.012Z,65.192000
2022-08-20T07:30:28.396Z,66.356000
2022-08-20T07:35:30.889Z,66.560000
2022-08-20T07:40:33.475Z,66.464000
2022-08-20T07:45:35.574Z,66.788000
2022-08-20T07:50:18.049Z,66.740000
2022-08-20T07:55:20.528Z,66.512000
2022-08-20T08:00:23.222Z,66.598571
2022-08-20T08:05:25.702Z,66.956000
2022-08-20T08:10:28.692Z,66.860000
2022-08-20T08:15:30.988Z,67.340000
2022-08-20T08:20:33.575Z,66.260000
2022-08-20T08:25:16.091Z,65.348000
2022-08-20T08:30:18.513Z,65.096000
2022-08-20T08:35:20.676Z,64.340000
2022-08-20T08:40:23.126Z,63.911429
2022-08-20T08:45:25.433Z,63.644000
2022-08-20T08:50:50.022Z,63.572000
2022-08-20T08:55:30.457Z,63.740000
2022-08-20T09:00:32.966Z,63.368000
2022-08-20T09:05:35.432Z,63.188000
2022-08-20T09:10:20.019Z,63.236000
2022-08-20T09:15:20.288Z,63.320000
2022-08-20T09:20:23.065Z,63.204286
2022-08-20T09:25:26.290Z,62.960000
2022-08-20T09:30:28.407Z,62.960000
2022-08-20T09:35:31.266Z,62.960000
2022-08-20T09:40:34.129Z,62.792000
2022-08-20T09:45:16.171Z,62.780000
2022-08-20T09:50:18.848Z,62.780000
2022-08-20T09:55:20.866Z,62.780000
2022-08-20T10:00:23.129Z,62.638571
2022-08-20T10:05:25.990Z,62.600000
2022-08-20T10:10:28.085Z,62.600000
2022-08-20T10:15:31.141Z,62.420000
2022-08-20T10:20:33.565Z,62.420000
2022-08-20T10:25:16.029Z,62.672000
2022-08-20T10:30:18.633Z,62.780000
2022-08-20T10:35:21.116Z,62.960000
2022-08-20T10:40:23.808Z,63.011429
2022-08-20T10:45:25.967Z,63.140000
2022-08-20T10:50:29.536Z,63.128000
2022-08-20T10:55:31.583Z,62.936000
2022-08-20T11:00:34.075Z,62.756000
2022-08-20T11:05:16.771Z,62.600000
2022-08-20T11:10:20.051Z,62.600000
2022-08-20T11:15:22.654Z,62.420000
2022-08-20T11:20:24.779Z,62.264000
2022-08-20T11:25:27.550Z,62.192000
2022-08-20T11:30:30.252Z,62.240000
2022-08-20T11:35:49.951Z,62.240000
2022-08-20T11:40:35.473Z,62.084000
2022-08-20T11:45:17.846Z,61.928000
2022-08-20T11:50:21.059Z,61.904000
2022-08-20T11:55:23.426Z,62.060000
2022-08-20T12:00:31.792Z,62.060000
2022-08-20T12:05:28.115Z,62.060000
2022-08-20T12:10:30.613Z,62.060000
2022-08-20T12:15:33.201Z,62.060000
2022-08-20T12:20:35.876Z,62.024000
2022-08-20T12:25:18.147Z,61.880000
2022-08-20T12:30:20.787Z,61.940000
2022-08-20T12:35:22.940Z,62.060000
2022-08-20T12:40:32.347Z,62.060000
2022-08-20T12:45:27.934Z,62.084000
2022-08-20T12:50:31.825Z,62.252000
2022-08-20T12:55:33.496Z,62.480000
2022-08-20T13:00:35.810Z,62.576000
2022-08-20T13:05:18.126Z,62.600000
2022-08-20T13:10:20.642Z,62.660000
2022-08-20T13:15:23.166Z,62.702857
2022-08-20T13:20:25.521Z,62.780000
2022-08-20T13:25:28.280Z,62.864000
2022-08-20T13:30:30.643Z,63.236000
2022-08-20T13:35:33.660Z,63.428000
2022-08-20T13:40:16.308Z,63.452000
2022-08-20T13:45:18.704Z,63.380000
2022-08-20T13:50:21.610Z,63.500000
2022-08-20T13:55:24.423Z,63.525714
2022-08-20T14:00:31.100Z,63.680000
2022-08-20T14:05:29.861Z,63.632000
2022-08-20T14:10:32.846Z,63.596000
2022-08-20T14:15:35.600Z,63.572000
2022-08-20T14:20:17.960Z,63.872000
2022-08-20T14:25:20.722Z,64.184000
2022-08-20T14:30:23.305Z,64.348571
2022-08-20T14:35:25.891Z,64.388000
2022-08-20T14:40:28.603Z,64.424000
2022-08-20T14:45:31.230Z,64.772000
2022-08-20T14:50:34.039Z,65.264000
2022-08-20T14:55:16.678Z,65.780000
2022-08-20T15:00:19.265Z,66.488000
2022-08-20T15:05:21.959Z,66.920000
2022-08-20T15:10:24.336Z,67.202857
2022-08-20T15:15:27.002Z,67.928000
2022-08-20T15:20:29.777Z,68.132000
2022-08-20T15:25:36.840Z,68.456000
2022-08-20T15:30:35.200Z,68.264000
2022-08-20T15:35:17.151Z,68.000000
2022-08-20T15:40:22.495Z,68.528000
2022-08-20T15:45:22.472Z,68.655714
2022-08-20T15:50:25.088Z,68.912000
2022-08-20T15:55:27.796Z,70.316000
2022-08-20T16:00:30.410Z,71.048000
2022-08-20T16:05:33.183Z,71.888000
2022-08-20T16:10:35.442Z,71.744000
2022-08-20T16:15:17.521Z,72.296000
2022-08-20T16:20:20.280Z,72.764000
2022-08-20T16:25:23.837Z,71.908571
2022-08-20T16:30:26.014Z,71.732000
2022-08-20T16:35:30.382Z,71.624000
2022-08-20T16:40:31.789Z,71.336000
2022-08-20T16:45:33.871Z,71.180000
2022-08-20T16:50:16.483Z,70.748000
2022-08-20T16:55:18.918Z,70.544000
2022-08-20T17:00:21.366Z,70.652000
2022-08-20T17:05:23.548Z,70.481429
2022-08-20T17:10:26.414Z,70.136000
2022-08-20T17:15:28.606Z,70.112000
2022-08-20T17:20:31.754Z,70.004000
2022-08-20T17:25:35.800Z,70.292000
2022-08-20T17:30:20.135Z,70.388000
2022-08-20T17:35:19.961Z,70.460000
2022-08-20T17:40:22.584Z,70.262857
2022-08-20T17:45:25.280Z,70.136000
2022-08-20T17:50:27.446Z,70.688000
2022-08-20T17:55:30.290Z,71.216000
2022-08-20T18:00:33.269Z,71.516000
2022-08-20T18:05:35.372Z,70.916000
2022-08-20T18:10:17.999Z,70.124000
2022-08-20T18:15:24.238Z,69.800000
2022-08-20T18:20:23.325Z,69.440000
2022-08-20T18:25:26.160Z,69.536000
2022-08-20T18:30:28.558Z,70.208000
2022-08-20T18:35:31.190Z,70.856000
2022-08-20T18:40:34.086Z,71.048000
2022-08-20T18:45:16.753Z,70.976000
2022-08-20T18:50:19.862Z,71.528000
2022-08-20T18:55:22.723Z,72.217143
2022-08-20T19:00:30.159Z,72.932000
2022-08-20T19:05:28.413Z,73.568000
2022-08-20T19:10:30.638Z,73.784000
2022-08-20T19:15:33.770Z,73.880000
2022-08-20T19:20:35.790Z,74.288000
2022-08-20T19:25:17.972Z,75.056000
2022-08-20T19:30:20.260Z,74.804000
2022-08-20T19:35:22.514Z,74.518571
2022-08-20T19:40:28.204Z,74.816000
2022-08-20T19:45:27.301Z,75.344000
2022-08-20T19:50:29.854Z,76.256000
2022-08-20T19:55:32.365Z,76.796000
2022-08-20T20:00:34.806Z,77.780000
2022-08-20T20:05:17.239Z,77.756000
2022-08-20T20:10:20.258Z,77.996000
2022-08-20T20:15:22.640Z,78.542857
2022-08-20T20:20:24.841Z,78.476000
2022-08-20T20:25:27.638Z,78.620000
2022-08-20T20:30:29.642Z,78.152000
2022-08-20T20:35:32.583Z,78.752000
2022-08-20T20:40:35.987Z,78.536000
2022-08-20T20:45:16.759Z,79.148000
2022-08-20T20:50:19.331Z,78.104000
2022-08-20T20:55:21.957Z,79.148000
2022-08-20T21:00:24.350Z,79.031429
2022-08-20T21:05:27.112Z,78.896000
2022-08-20T21:10:29.157Z,79.472000
2022-08-20T21:15:32.043Z,78.908000
2022-08-20T21:20:34.699Z,78.500000
2022-08-20T21:25:16.759Z,78.512000
2022-08-20T21:30:19.700Z,78.692000
2022-08-20T21:35:21.804Z,79.448000
2022-08-20T21:40:24.248Z,79.108571
2022-08-20T21:45:28.296Z,78.848000
2022-08-20T21:50:29.548Z,79.748000
2022-08-20T21:55:36.182Z,78.812000
2022-08-20T22:00:34.533Z,78.884000
2022-08-20T22:05:16.645Z,78.956000
2022-08-20T22:10:19.079Z,79.820000
2022-08-20T22:15:21.471Z,80.480000
2022-08-20T22:20:24.259Z,80.818571
2022-08-20T22:25:27.208Z,80.408000
2022-08-20T22:30:29.215Z,79.772000
2022-08-20T22:35:31.418Z,80.432000
2022-08-20T22:40:34.356Z,79.892000
2022-08-20T22:45:16.674Z,80.060000
2022-08-20T22:50:19.206Z,79.100000
2022-08-20T22:55:21.734Z,78.824000
2022-08-20T23:00:25.337Z,78.748571
2022-08-20T23:05:26.745Z,78.644000
2022-08-20T23:10:29.277Z,78.344000
2022-08-20T23:15:31.812Z,79.040000
2022-08-20T23:20:35.070Z,78.932000
2022-08-20T23:25:15.977Z,78.440000
2022-08-20T23:30:19.000Z,78.260000
2022-08-20T23:35:21.592Z,78.548000
2022-08-20T23:40:28.311Z,78.530000
2022-08-20T23:45:26.932Z,78.236000
2022-08-20T23:50:29.205Z,78.176000
2022-08-20T23:55:32.088Z,78.020000
